createdAt,value
2017-12-25T00:00:28.365Z,93.00
2017-12-25T00:02:57.887Z,93.20
2017-12-25T00:05:26.880Z,92.60
2017-12-25T00:07:54.412Z,92.60
2017-12-25T00:10:21.986Z,92.40
2017-12-25T00:12:49.537Z,92.30
2017-12-25T00:15:17.962Z,92.40
2017-12-25T00:17:45.485Z,92.30
2017-12-25T00:20:13.048Z,92.40
2017-12-25T00:22:41.365Z,92.90
2017-12-25T00:25:08.929Z,92.60
2017-12-25T00:27:37.227Z,92.50
2017-12-25T00:30:04.787Z,92.50
2017-12-25T00:32:34.958Z,92.40
2017-12-25T00:35:02.551Z,92.30
2017-12-25T00:37:30.080Z,92.30
2017-12-25T00:39:58.383Z,92.20
2017-12-25T00:42:25.919Z,92.40
2017-12-25T00:44:54.837Z,92.40
2017-12-25T00:47:22.376Z,92.40
2017-12-25T00:49:50.727Z,92.40
2017-12-25T00:52:18.259Z,92.60
2017-12-25T00:54:46.598Z,92.40
2017-12-25T00:57:14.128Z,92.40
2017-12-25T00:59:43.607Z,92.40
2017-12-25T01:02:11.983Z,92.40
2017-12-25T01:04:39.543Z,92.50
2017-12-25T01:07:07.600Z,92.40
2017-12-25T01:09:35.934Z,92.50
2017-12-25T01:12:04.100Z,92.40
2017-12-25T01:14:32.479Z,91.90
2017-12-25T01:17:01.007Z,91.70
2017-12-25T01:19:29.162Z,92.00
2017-12-25T01:21:57.875Z,92.00
2017-12-25T01:24:26.144Z,92.20
2017-12-25T01:26:53.692Z,92.40
2017-12-25T01:29:21.275Z,92.20
2017-12-25T01:31:50.275Z,92.30
2017-12-25T01:34:18.701Z,92.30
2017-12-25T01:36:47.463Z,92.40
2017-12-25T01:39:15.797Z,92.40
2017-12-25T01:41:43.319Z,92.40
2017-12-25T01:44:14.810Z,92.60
2017-12-25T01:49:37.912Z,92.70
2017-12-25T01:52:06.208Z,92.00
2017-12-25T01:54:35.536Z,91.80
2017-12-25T01:57:23.870Z,91.80
2017-12-25T02:02:56.550Z,91.60
2017-12-25T02:05:41.979Z,92.00
2017-12-25T02:11:07.147Z,92.40
2017-12-25T02:13:35.465Z,92.40
2017-12-25T02:16:03.219Z,92.40
2017-12-25T02:18:31.553Z,92.50
2017-12-25T02:20:59.940Z,92.50
2017-12-25T02:23:27.515Z,92.50
2017-12-25T02:25:55.051Z,92.60
2017-12-25T02:28:24.509Z,92.70
2017-12-25T02:30:52.047Z,92.70
2017-12-25T02:33:19.625Z,92.70
2017-12-25T02:35:48.723Z,92.80
2017-12-25T02:38:17.028Z,92.60
2017-12-25T02:40:45.340Z,92.40
2017-12-25T02:43:12.865Z,92.30
2017-12-25T02:45:41.203Z,91.80
2017-12-25T02:48:09.264Z,91.90
2017-12-25T02:50:36.845Z,92.10
2017-12-25T02:53:05.161Z,92.20
2017-12-25T02:55:32.724Z,92.00
2017-12-25T02:58:00.284Z,91.70
2017-12-25T03:00:27.848Z,91.70
2017-12-25T03:02:56.326Z,91.20
2017-12-25T03:05:24.672Z,91.00
2017-12-25T03:07:53.051Z,91.00
2017-12-25T03:10:20.623Z,91.40
2017-12-25T03:12:48.148Z,91.20
2017-12-25T03:15:16.482Z,91.50
2017-12-25T03:17:44.024Z,91.50
2017-12-25T03:20:11.593Z,91.30
2017-12-25T03:22:39.120Z,91.30
2017-12-25T03:25:07.663Z,91.60
2017-12-25T03:27:35.856Z,91.90
2017-12-25T03:30:04.700Z,91.90
2017-12-25T03:32:32.243Z,92.10
2017-12-25T03:34:59.809Z,92.10
2017-12-25T03:37:27.672Z,92.00
2017-12-25T03:39:55.260Z,92.10
2017-12-25T03:42:24.061Z,92.10
2017-12-25T03:44:52.405Z,92.20
2017-12-25T03:47:19.948Z,92.30
2017-12-25T03:49:47.544Z,92.40
2017-12-25T03:52:15.172Z,92.20
2017-12-25T03:54:42.748Z,92.20
2017-12-25T03:57:10.291Z,92.40
2017-12-25T03:59:38.636Z,92.60
2017-12-25T04:02:08.744Z,92.60
2017-12-25T04:04:38.483Z,92.40
2017-12-25T04:07:06.049Z,92.20
2017-12-25T04:09:33.619Z,92.10
2017-12-25T04:12:02.180Z,91.90
2017-12-25T04:14:31.131Z,92.10
2017-12-25T04:16:59.533Z,92.10
2017-12-25T04:19:27.925Z,92.10
2017-12-25T04:21:56.437Z,92.00
2017-12-25T04:24:24.805Z,92.20
2017-12-25T04:26:53.203Z,92.40
2017-12-25T04:29:20.791Z,92.70
2017-12-25T04:31:48.318Z,92.30
2017-12-25T04:34:15.902Z,92.40
2017-12-25T04:36:44.156Z,92.40
2017-12-25T04:39:13.715Z,92.40
2017-12-25T04:41:41.834Z,92.40
2017-12-25T04:44:09.407Z,92.40
2017-12-25T04:46:36.931Z,92.50
2017-12-25T04:49:04.509Z,92.40
2017-12-25T04:51:32.044Z,92.40
2017-12-25T04:54:00.388Z,92.70
2017-12-25T04:56:27.919Z,92.70
2017-12-25T04:58:56.264Z,93.30
2017-12-25T05:01:23.794Z,93.30
2017-12-25T05:03:51.378Z,93.20
2017-12-25T05:06:18.907Z,93.10
2017-12-25T05:08:47.312Z,93.30
2017-12-25T05:11:16.204Z,93.50
2017-12-25T05:13:44.545Z,93.80
2017-12-25T05:16:13.231Z,93.60
2017-12-25T05:18:41.412Z,93.50
2017-12-25T05:21:10.088Z,93.50
2017-12-25T05:23:39.431Z,93.60
2017-12-25T05:26:08.103Z,93.20
2017-12-25T05:28:36.471Z,93.60
2017-12-25T05:31:04.009Z,93.60
2017-12-25T05:33:31.586Z,93.40
2017-12-25T05:35:59.115Z,93.60
2017-12-25T05:38:28.245Z,93.70
2017-12-25T05:40:55.784Z,93.70
2017-12-25T05:43:23.353Z,93.90
2017-12-25T05:45:54.282Z,93.70
2017-12-25T05:48:22.676Z,93.90
2017-12-25T05:50:51.004Z,93.80
2017-12-25T05:53:19.331Z,93.90
2017-12-25T05:55:46.907Z,93.90
2017-12-25T05:58:14.479Z,93.80
2017-12-25T06:00:42.568Z,93.60
2017-12-25T06:03:10.138Z,93.30
2017-12-25T06:05:37.680Z,93.40
2017-12-25T06:08:06.960Z,93.00
2017-12-25T06:10:34.495Z,92.90
2017-12-25T06:13:02.856Z,92.90
2017-12-25T06:15:30.386Z,92.70
2017-12-25T06:17:57.952Z,92.70
2017-12-25T06:20:27.969Z,92.90
2017-12-25T06:22:55.536Z,92.90
2017-12-25T06:25:23.831Z,93.30
2017-12-25T06:27:52.327Z,93.30
2017-12-25T06:30:19.862Z,93.30
2017-12-25T06:32:48.160Z,93.60
2017-12-25T06:35:15.739Z,93.60
2017-12-25T06:37:43.269Z,93.70
2017-12-25T06:40:10.853Z,93.50
2017-12-25T06:42:38.387Z,93.40
2017-12-25T06:45:06.536Z,93.60
2017-12-25T06:47:34.860Z,93.60
2017-12-25T06:50:02.429Z,93.80
2017-12-25T06:52:29.958Z,93.80
2017-12-25T06:54:58.295Z,93.30
2017-12-25T06:57:25.825Z,93.30
2017-12-25T06:59:54.907Z,93.30
2017-12-25T07:02:23.087Z,93.30
2017-12-25T07:04:50.616Z,93.70
2017-12-25T07:07:18.203Z,93.60
2017-12-25T07:09:46.583Z,93.80
2017-12-25T07:12:14.152Z,93.90
2017-12-25T07:14:42.708Z,94.00
2017-12-25T07:17:11.060Z,94.40
2017-12-25T07:19:38.589Z,94.40
2017-12-25T07:22:07.748Z,94.60
2017-12-25T07:24:36.044Z,94.50
2017-12-25T07:27:04.633Z,94.50
2017-12-25T07:29:32.780Z,94.80
2017-12-25T07:32:01.091Z,94.90
2017-12-25T07:34:28.633Z,94.90
2017-12-25T07:36:57.628Z,95.00
2017-12-25T07:39:26.566Z,94.80
2017-12-25T07:41:54.157Z,94.70
2017-12-25T07:44:22.553Z,95.00
2017-12-25T07:46:50.121Z,94.60
2017-12-25T07:49:17.652Z,94.70
2017-12-25T07:51:46.041Z,94.40
2017-12-25T07:54:14.454Z,94.50
2017-12-25T07:56:42.025Z,94.50
2017-12-25T07:59:09.560Z,94.00
2017-12-25T08:01:37.163Z,94.10
2017-12-25T08:04:04.691Z,94.00
2017-12-25T08:06:33.463Z,94.00
2017-12-25T08:09:01.010Z,94.00
2017-12-25T08:11:28.600Z,94.10
2017-12-25T08:13:56.927Z,93.70
2017-12-25T08:16:25.021Z,93.70
2017-12-25T08:18:52.547Z,93.60
2017-12-25T08:21:20.128Z,93.80
2017-12-25T08:23:48.600Z,93.80
2017-12-25T08:26:16.188Z,93.60
2017-12-25T08:28:43.898Z,94.00
2017-12-25T08:31:11.421Z,93.50
2017-12-25T08:33:38.995Z,93.40
2017-12-25T08:36:06.533Z,93.80
2017-12-25T08:38:34.869Z,94.10
2017-12-25T08:41:03.259Z,94.10
2017-12-25T08:43:30.845Z,94.00
2017-12-25T08:45:58.369Z,93.60
2017-12-25T08:48:26.703Z,93.30
2017-12-25T08:50:54.273Z,93.30
2017-12-25T08:53:21.857Z,93.50
2017-12-25T08:55:49.963Z,92.90
2017-12-25T08:58:17.548Z,92.70
2017-12-25T09:00:45.082Z,92.40
2017-12-25T09:03:12.668Z,92.20
2017-12-25T09:05:40.210Z,92.20
2017-12-25T09:08:07.831Z,92.50
2017-12-25T09:10:36.155Z,92.70
2017-12-25T09:13:05.288Z,92.60
2017-12-25T09:15:33.520Z,92.60
2017-12-25T09:18:01.093Z,92.70
2017-12-25T09:20:30.168Z,92.60
2017-12-25T09:22:57.775Z,92.60
2017-12-25T09:25:26.109Z,92.70
2017-12-25T09:27:54.492Z,92.50
2017-12-25T09:30:22.052Z,92.30
2017-12-25T09:32:50.347Z,91.70
2017-12-25T09:35:19.259Z,91.70
2017-12-25T09:37:46.786Z,91.70
2017-12-25T09:40:15.304Z,91.40
2017-12-25T09:42:43.611Z,91.40
2017-12-25T09:45:12.789Z,91.50
2017-12-25T09:47:40.337Z,91.50
2017-12-25T09:50:07.915Z,91.40
2017-12-25T09:52:35.456Z,91.20
2017-12-25T09:55:03.024Z,91.40
2017-12-25T09:57:31.379Z,91.60
2017-12-25T09:59:58.951Z,92.00
2017-12-25T10:02:26.489Z,92.40
2017-12-25T10:04:55.170Z,92.50
2017-12-25T10:07:22.719Z,92.60
2017-12-25T10:09:51.085Z,93.10
2017-12-25T10:12:18.624Z,93.10
2017-12-25T10:14:46.193Z,93.30
2017-12-25T10:17:13.725Z,93.50
2017-12-25T10:19:42.859Z,94.00
2017-12-25T10:22:11.241Z,93.90
2017-12-25T10:24:40.869Z,94.00
2017-12-25T10:27:08.416Z,94.80
2017-12-25T10:29:37.287Z,94.50
2017-12-25T10:32:04.836Z,94.40
2017-12-25T10:34:33.642Z,94.40
2017-12-25T10:37:01.183Z,94.40
2017-12-25T10:39:28.743Z,94.20
2017-12-25T10:41:57.697Z,94.50
2017-12-25T10:44:26.913Z,94.70
2017-12-25T10:46:55.691Z,95.10
2017-12-25T10:49:24.919Z,95.10
2017-12-25T10:51:52.443Z,95.10
2017-12-25T10:54:20.033Z,95.10
2017-12-25T10:56:47.567Z,95.00
2017-12-25T10:59:15.096Z,95.60
2017-12-25T11:01:42.663Z,95.40
2017-12-25T11:04:10.204Z,95.40
2017-12-25T11:06:38.543Z,95.20
2017-12-25T11:09:07.797Z,95.10
2017-12-25T11:11:36.135Z,95.20
2017-12-25T11:14:03.666Z,95.20
2017-12-25T11:16:32.004Z,95.80
2017-12-25T11:18:59.536Z,95.80
2017-12-25T11:21:27.923Z,96.10
2017-12-25T11:23:56.997Z,96.50
2017-12-25T11:26:24.589Z,96.50
2017-12-25T11:28:52.112Z,96.40
2017-12-25T11:31:21.441Z,96.50
2017-12-25T11:33:48.973Z,96.30
2017-12-25T11:36:17.677Z,96.80
2017-12-25T11:38:45.252Z,97.20
2017-12-25T11:41:12.839Z,96.50
2017-12-25T11:43:40.368Z,96.30
2017-12-25T11:46:08.689Z,95.80
2017-12-25T11:48:36.261Z,95.80
2017-12-25T11:51:03.821Z,96.40
2017-12-25T11:53:32.286Z,96.40
2017-12-25T11:56:00.475Z,96.40
2017-12-25T11:58:28.004Z,96.70
2017-12-25T12:00:55.531Z,97.10
2017-12-25T12:03:23.872Z,98.10
2017-12-25T12:05:52.245Z,98.00
2017-12-25T12:08:20.076Z,98.10
2017-12-25T12:10:47.624Z,96.70
2017-12-25T12:13:16.027Z,96.50
2017-12-25T12:15:44.320Z,97.00
2017-12-25T12:18:11.884Z,97.40
2017-12-25T12:20:39.403Z,95.10
2017-12-25T12:23:08.735Z,97.20
2017-12-25T12:25:36.269Z,97.10
2017-12-25T12:28:03.845Z,97.60
2017-12-25T12:30:31.382Z,97.70
2017-12-25T12:32:58.964Z,97.90
2017-12-25T12:35:26.495Z,97.30
2017-12-25T12:37:54.103Z,96.80
2017-12-25T12:40:22.279Z,97.40
2017-12-25T12:42:49.856Z,97.80
2017-12-25T12:45:17.947Z,98.00
2017-12-25T12:47:46.710Z,98.20
2017-12-25T12:50:14.262Z,98.20
2017-12-25T12:52:43.877Z,98.90
2017-12-25T12:55:12.182Z,99.60
2017-12-25T12:57:40.507Z,99.40
2017-12-25T13:00:08.051Z,99.40
2017-12-25T13:02:36.420Z,98.10
2017-12-25T13:05:03.947Z,98.10
2017-12-25T13:07:31.520Z,97.50
2017-12-25T13:10:00.096Z,97.00
2017-12-25T13:12:27.672Z,97.00
2017-12-25T13:14:55.226Z,96.50
2017-12-25T13:17:23.590Z,96.30
2017-12-25T13:19:51.960Z,96.30
2017-12-25T13:22:19.493Z,94.90
2017-12-25T13:24:47.076Z,95.40
2017-12-25T13:27:14.641Z,94.50
2017-12-25T13:29:43.320Z,94.50
2017-12-25T13:32:11.668Z,93.90
2017-12-25T13:34:39.809Z,93.90
2017-12-25T13:37:07.390Z,83.20
2017-12-25T13:39:34.919Z,91.80
2017-12-25T13:42:05.903Z,92.20
2017-12-25T13:44:35.184Z,93.30
2017-12-25T13:47:02.772Z,93.30
2017-12-25T13:49:30.295Z,93.80
2017-12-25T13:51:57.844Z,93.70
2017-12-25T13:54:26.609Z,93.90
2017-12-25T13:56:54.329Z,94.30
2017-12-25T13:59:21.903Z,94.70
2017-12-25T14:01:50.224Z,94.40
2017-12-25T14:04:18.560Z,94.40
2017-12-25T14:06:47.788Z,94.60
2017-12-25T14:09:15.353Z,94.50
2017-12-25T14:11:43.658Z,94.70
2017-12-25T14:14:12.680Z,94.60
2017-12-25T14:16:41.164Z,94.50
2017-12-25T14:19:09.987Z,94.90
2017-12-25T14:21:37.516Z,95.00
2017-12-25T14:24:05.087Z,95.00
2017-12-25T14:26:33.383Z,93.70
2017-12-25T14:29:02.508Z,94.50
2017-12-25T14:31:30.035Z,94.50
2017-12-25T14:33:58.740Z,94.80
2017-12-25T14:36:27.449Z,95.20
2017-12-25T14:38:55.011Z,95.60
2017-12-25T14:41:22.544Z,95.60
2017-12-25T14:43:50.117Z,95.40
2017-12-25T14:46:18.667Z,95.20
2017-12-25T14:48:47.209Z,94.80
2017-12-25T14:51:15.645Z,95.20
2017-12-25T14:53:43.271Z,94.90
2017-12-25T14:56:11.574Z,94.10
2017-12-25T14:58:40.106Z,94.10
2017-12-25T15:01:07.640Z,94.00
2017-12-25T15:03:36.056Z,93.50
2017-12-25T15:06:04.846Z,93.10
2017-12-25T15:08:32.463Z,93.60
2017-12-25T15:11:01.359Z,94.20
2017-12-25T15:13:28.924Z,94.00
2017-12-25T15:15:57.792Z,93.30
2017-12-25T15:18:25.977Z,94.00
2017-12-25T15:20:53.513Z,93.70
2017-12-25T15:23:22.763Z,94.20
2017-12-25T15:25:51.313Z,94.20
2017-12-25T15:28:19.668Z,95.00
2017-12-25T15:30:47.253Z,94.90
2017-12-25T15:33:14.854Z,94.80
2017-12-25T15:35:43.815Z,94.60
2017-12-25T15:38:11.408Z,94.60
2017-12-25T15:40:39.855Z,94.50
2017-12-25T15:43:07.480Z,94.50
2017-12-25T15:45:35.014Z,94.50
2017-12-25T15:48:02.864Z,94.60
2017-12-25T15:50:32.038Z,95.20
2017-12-25T15:52:59.632Z,95.10
2017-12-25T15:55:28.955Z,94.90
2017-12-25T15:57:58.221Z,94.50
2017-12-25T16:00:26.655Z,94.50
2017-12-25T16:02:54.239Z,94.60
2017-12-25T16:05:22.554Z,94.80
2017-12-25T16:07:50.120Z,94.80
2017-12-25T16:10:18.520Z,94.80
2017-12-25T16:12:46.958Z,94.30
2017-12-25T16:15:14.541Z,94.10
2017-12-25T16:17:43.028Z,94.30
2017-12-25T16:20:11.154Z,93.00
2017-12-25T16:22:39.353Z,89.90
2017-12-25T16:25:07.864Z,90.10
2017-12-25T16:27:35.440Z,92.40
2017-12-25T16:30:03.473Z,93.00
2017-12-25T16:32:32.985Z,93.10
2017-12-25T16:35:00.588Z,93.00
2017-12-25T16:37:28.132Z,92.70
2017-12-25T16:39:55.665Z,92.40
2017-12-25T16:42:23.807Z,92.30
2017-12-25T16:44:52.092Z,92.20
2017-12-25T16:47:21.362Z,91.90
2017-12-25T16:49:48.886Z,91.90
2017-12-25T16:52:18.392Z,91.10
2017-12-25T16:54:45.941Z,91.10
2017-12-25T16:57:13.516Z,91.90
2017-12-25T16:59:41.065Z,91.30
2017-12-25T17:02:08.635Z,91.30
2017-12-25T17:04:37.150Z,91.30
2017-12-25T17:07:04.948Z,92.30
2017-12-25T17:09:32.493Z,93.10
2017-12-25T17:12:02.066Z,91.10
2017-12-25T17:14:31.363Z,91.60
2017-12-25T17:17:00.889Z,93.00
2017-12-25T17:19:29.231Z,92.90
2017-12-25T17:21:57.743Z,92.90
2017-12-25T17:24:26.229Z,93.40
2017-12-25T17:26:53.775Z,92.80
2017-12-25T17:29:21.357Z,92.10
2017-12-25T17:31:48.887Z,93.10
2017-12-25T17:34:17.527Z,93.70
2017-12-25T17:36:45.073Z,93.70
2017-12-25T17:39:12.669Z,94.20
2017-12-25T17:41:41.017Z,93.80
2017-12-25T17:44:08.554Z,92.80
2017-12-25T17:46:36.584Z,92.20
2017-12-25T17:49:05.513Z,91.60
2017-12-25T17:51:34.646Z,91.50
2017-12-25T17:54:03.064Z,91.30
2017-12-25T17:56:30.648Z,89.10
2017-12-25T17:58:58.188Z,84.80
2017-12-25T18:01:26.332Z,90.10
2017-12-25T18:03:55.789Z,81.80
2017-12-25T18:06:24.092Z,81.60
2017-12-25T18:08:52.197Z,83.20
2017-12-25T18:11:19.799Z,83.80
2017-12-25T18:13:48.104Z,87.60
2017-12-25T18:16:15.946Z,87.60
2017-12-25T18:18:43.479Z,87.60
2017-12-25T18:21:11.843Z,89.50
2017-12-25T18:23:40.565Z,90.80
2017-12-25T18:26:08.140Z,91.20
2017-12-25T18:28:36.928Z,91.50
2017-12-25T18:31:04.530Z,90.50
2017-12-25T18:33:32.655Z,90.10
2017-12-25T18:36:01.185Z,90.60
2017-12-25T18:38:29.878Z,90.90
2017-12-25T18:40:57.459Z,90.70
2017-12-25T18:43:24.994Z,89.40
2017-12-25T18:45:53.335Z,89.10
2017-12-25T18:48:20.909Z,89.10
2017-12-25T18:50:48.442Z,90.30
2017-12-25T18:53:16.790Z,90.80
2017-12-25T18:55:44.338Z,91.10
2017-12-25T18:58:12.784Z,91.30
2017-12-25T19:00:40.632Z,91.00
2017-12-25T19:03:08.181Z,92.00
2017-12-25T19:05:35.748Z,91.20
2017-12-25T19:08:03.344Z,80.00
2017-12-25T19:10:30.926Z,78.40
2017-12-25T19:12:58.460Z,81.90
2017-12-25T19:15:26.871Z,77.60
2017-12-25T19:17:55.658Z,74.30
2017-12-25T19:20:23.331Z,75.50
2017-12-25T19:22:53.654Z,76.70
2017-12-25T19:25:22.636Z,80.80
2017-12-25T19:27:51.032Z,80.60
2017-12-25T19:30:19.546Z,76.30
2017-12-25T19:32:48.424Z,72.30
2017-12-25T19:35:16.973Z,72.30
2017-12-25T19:37:44.560Z,77.60
2017-12-25T19:40:12.156Z,76.90
2017-12-25T19:42:39.809Z,74.30
2017-12-25T19:45:08.128Z,72.60
2017-12-25T19:47:37.019Z,71.50
2017-12-25T19:50:06.932Z,71.50
2017-12-25T19:52:35.480Z,75.10
2017-12-25T19:55:03.750Z,71.90
2017-12-25T19:57:31.357Z,71.90
2017-12-25T19:59:59.660Z,71.20
2017-12-25T20:02:28.451Z,71.20
2017-12-25T20:04:56.791Z,71.90
2017-12-25T20:07:24.430Z,71.90
2017-12-25T20:09:52.018Z,71.90
2017-12-25T20:12:19.634Z,73.30
2017-12-25T20:14:47.210Z,77.50
2017-12-25T20:17:15.985Z,77.50
2017-12-25T20:19:43.573Z,78.30
2017-12-25T20:22:11.147Z,78.30
2017-12-25T20:24:38.995Z,77.00
2017-12-25T20:27:06.556Z,79.80
2017-12-25T20:29:34.135Z,81.10
2017-12-25T20:32:01.792Z,83.60
2017-12-25T20:34:30.152Z,86.70
2017-12-25T20:36:57.778Z,86.70
2017-12-25T20:39:26.118Z,87.80
2017-12-25T20:41:53.753Z,89.10
2017-12-25T20:44:22.225Z,88.30
2017-12-25T20:46:49.842Z,88.90
2017-12-25T20:49:18.272Z,88.50
2017-12-25T20:51:47.187Z,88.90
2017-12-25T20:54:15.531Z,89.30
2017-12-25T20:56:43.158Z,89.30
2017-12-25T20:59:10.740Z,90.90
2017-12-25T21:01:38.356Z,90.90
2017-12-25T21:04:06.190Z,90.60
2017-12-25T21:06:33.766Z,90.40
2017-12-25T21:09:01.344Z,91.00
2017-12-25T21:11:28.908Z,91.40
2017-12-25T21:13:57.332Z,91.40
2017-12-25T21:16:24.904Z,91.20
2017-12-25T21:18:53.467Z,91.20
2017-12-25T21:21:23.028Z,90.80
2017-12-25T21:23:51.981Z,90.80
2017-12-25T21:26:19.609Z,90.70
2017-12-25T21:28:48.052Z,92.00
2017-12-25T21:31:15.590Z,92.80
2017-12-25T21:33:43.236Z,92.20
2017-12-25T21:36:10.835Z,91.60
2017-12-25T21:38:38.461Z,91.50
2017-12-25T21:41:06.058Z,91.50
2017-12-25T21:43:34.539Z,92.40
2017-12-25T21:46:02.972Z,93.20
2017-12-25T21:48:31.745Z,93.20
2017-12-25T21:51:02.096Z,92.60
2017-12-25T21:53:30.526Z,92.70
2017-12-25T21:55:58.097Z,92.90
2017-12-25T21:58:26.744Z,93.40
2017-12-25T22:00:54.321Z,94.80
2017-12-25T22:03:21.960Z,94.90
2017-12-25T22:05:50.128Z,93.80
2017-12-25T22:08:17.760Z,93.60
2017-12-25T22:10:45.348Z,93.00
2017-12-25T22:13:13.982Z,93.10
2017-12-25T22:15:42.423Z,93.50
2017-12-25T22:18:10.737Z,93.30
2017-12-25T22:20:38.321Z,93.90
2017-12-25T22:23:06.760Z,94.00
2017-12-25T22:25:34.343Z,94.40
2017-12-25T22:28:01.976Z,94.20
2017-12-25T22:30:30.557Z,94.40
2017-12-25T22:32:58.406Z,94.60
2017-12-25T22:35:25.945Z,95.00
2017-12-25T22:37:54.451Z,94.00
2017-12-25T22:40:22.791Z,94.20
2017-12-25T22:42:50.407Z,94.20
2017-12-25T22:45:19.910Z,94.80
2017-12-25T22:47:47.522Z,94.80
2017-12-25T22:50:15.105Z,94.70
2017-12-25T22:52:42.719Z,94.40
2017-12-25T22:55:11.211Z,94.70
2017-12-25T22:57:38.846Z,95.00
2017-12-25T23:00:06.431Z,95.20
2017-12-25T23:02:34.048Z,95.50
2017-12-25T23:05:01.692Z,95.70
2017-12-25T23:07:29.323Z,95.70
2017-12-25T23:09:57.602Z,95.40
2017-12-25T23:12:25.185Z,95.30
2017-12-25T23:14:52.769Z,95.10
2017-12-25T23:17:20.404Z,95.70
2017-12-25T23:19:47.961Z,95.60
2017-12-25T23:22:15.582Z,96.10
2017-12-25T23:24:43.872Z,95.60
2017-12-25T23:27:12.138Z,95.60
2017-12-25T23:29:39.718Z,96.00
2017-12-25T23:32:09.025Z,97.10
2017-12-25T23:34:36.610Z,96.80
2017-12-25T23:37:05.022Z,97.00
2017-12-25T23:39:32.602Z,97.30
2017-12-25T23:42:00.202Z,96.90
2017-12-25T23:44:27.770Z,97.00
2017-12-25T23:46:55.352Z,96.80
2017-12-25T23:49:22.880Z,96.70
2017-12-25T23:51:50.504Z,96.90
2017-12-25T23:54:23.056Z,96.80
2017-12-25T23:56:50.649Z,96.60
2017-12-25T23:59:18.971Z,96.60
